createdAt,value
2018-07-08T00:01:37.605Z,16.10
2018-07-08T00:04:09.593Z,16.00
2018-07-08T00:06:41.484Z,15.90
2018-07-08T00:09:13.716Z,15.80
2018-07-08T00:11:45.585Z,16.00
2018-07-08T00:14:17.553Z,16.10
2018-07-08T00:16:49.473Z,16.00
2018-07-08T00:19:21.488Z,16.20
2018-07-08T00:21:53.433Z,16.30
2018-07-08T00:24:25.313Z,16.40
2018-07-08T00:34:31.176Z,16.00
2018-07-08T00:37:03.081Z,15.90
2018-07-08T00:39:35.036Z,16.00
2018-07-08T00:44:38.105Z,15.70
2018-07-08T00:47:09.949Z,15.70
2018-07-08T00:49:41.938Z,15.90
2018-07-08T00:52:13.881Z,16.10
2018-07-08T00:57:17.012Z,16.00
2018-07-08T00:59:48.944Z,15.90
2018-07-08T01:02:20.796Z,16.10
2018-07-08T01:04:52.720Z,16.20
2018-07-08T01:07:24.552Z,16.20
2018-07-08T01:09:56.532Z,16.30
2018-07-08T01:12:28.452Z,16.10
2018-07-08T01:15:00.328Z,16.00
2018-07-08T01:17:32.214Z,16.20
2018-07-08T01:20:04.365Z,15.90
2018-07-08T01:22:36.388Z,15.90
2018-07-08T01:25:18.308Z,16.10
2018-07-08T01:27:50.146Z,16.20
2018-07-08T01:32:53.393Z,15.60
2018-07-08T01:35:25.332Z,15.40
2018-07-08T01:37:57.213Z,15.50
2018-07-08T01:43:00.296Z,15.40
2018-07-08T01:45:32.132Z,15.30
2018-07-08T01:48:04.132Z,15.30
2018-07-08T01:50:36.087Z,15.50
2018-07-08T01:53:07.951Z,15.60
2018-07-08T01:55:39.873Z,15.70
2018-07-08T02:00:43.065Z,15.80
2018-07-08T02:03:15.005Z,15.70
2018-07-08T02:05:47.213Z,15.60
2018-07-08T02:08:19.313Z,15.40
2018-07-08T02:10:51.313Z,15.30
2018-07-08T02:13:23.163Z,15.40
2018-07-08T02:15:55.393Z,15.20
2018-07-08T02:20:58.612Z,15.40
2018-07-08T02:26:01.677Z,15.40
2018-07-08T02:31:04.849Z,15.00
2018-07-08T02:33:36.784Z,15.30
2018-07-08T02:36:08.662Z,15.20
2018-07-08T02:41:11.745Z,14.90
2018-07-08T02:43:43.799Z,14.70
2018-07-08T02:48:47.263Z,14.80
2018-07-08T02:51:19.395Z,14.70
2018-07-08T02:53:51.257Z,14.90
2018-07-08T02:56:23.173Z,14.90
2018-07-08T02:58:55.041Z,14.90
2018-07-08T03:01:26.877Z,14.80
2018-07-08T03:03:58.813Z,14.80
2018-07-08T03:09:02.053Z,14.90
2018-07-08T03:11:33.913Z,14.90
2018-07-08T03:14:06.063Z,15.00
2018-07-08T03:19:09.218Z,14.60
2018-07-08T03:21:41.130Z,14.70
2018-07-08T03:24:12.919Z,14.70
2018-07-08T03:26:44.933Z,14.90
2018-07-08T03:29:16.869Z,15.00
2018-07-08T03:31:48.684Z,14.60
2018-07-08T03:34:20.405Z,14.40
2018-07-08T03:36:52.312Z,14.40
2018-07-08T03:39:24.105Z,14.30
2018-07-08T03:44:27.712Z,14.60
2018-07-08T03:46:59.645Z,14.70
2018-07-08T03:49:31.653Z,14.50
2018-07-08T03:52:03.713Z,14.20
2018-07-08T03:54:35.525Z,14.40
2018-07-08T03:57:07.484Z,14.40
2018-07-08T03:59:39.353Z,14.20
2018-07-08T04:02:11.315Z,14.40
2018-07-08T04:04:43.213Z,14.60
2018-07-08T04:07:15.169Z,14.60
2018-07-08T04:09:47.134Z,14.90
2018-07-08T04:14:50.236Z,14.70
2018-07-08T04:17:22.194Z,14.60
2018-07-08T04:19:54.093Z,14.60
2018-07-08T04:22:25.963Z,14.70
2018-07-08T04:24:57.815Z,14.70
2018-07-08T04:27:29.819Z,14.60
2018-07-08T04:30:01.713Z,14.70
2018-07-08T04:32:33.624Z,14.60
2018-07-08T04:35:06.021Z,14.60
2018-07-08T04:37:38.015Z,14.80
2018-07-08T04:40:09.893Z,14.80
2018-07-08T04:47:44.334Z,14.90
2018-07-08T04:50:16.193Z,15.00
2018-07-08T04:52:48.138Z,15.00
2018-07-08T04:55:19.953Z,15.10
2018-07-08T04:57:51.862Z,15.00
2018-07-08T05:00:24.053Z,15.10
2018-07-08T05:02:55.962Z,15.40
2018-07-08T05:05:27.865Z,15.30
2018-07-08T05:08:00.733Z,15.20
2018-07-08T05:10:32.693Z,15.20
2018-07-08T05:13:04.665Z,15.20
2018-07-08T05:15:37.266Z,15.40
2018-07-08T05:18:09.285Z,15.30
2018-07-08T05:20:41.265Z,15.30
2018-07-08T05:23:16.148Z,15.30
2018-07-08T05:25:48.072Z,15.30
2018-07-08T05:28:20.007Z,15.30
2018-07-08T05:30:51.929Z,15.20
2018-07-08T05:33:23.789Z,15.10
2018-07-08T05:35:55.590Z,15.20
2018-07-08T05:38:27.561Z,15.30
2018-07-08T05:40:59.413Z,15.40
2018-07-08T05:43:31.541Z,15.40
2018-07-08T05:46:03.606Z,15.40
2018-07-08T05:48:35.574Z,15.30
2018-07-08T05:51:07.830Z,15.40
2018-07-08T05:53:40.515Z,15.50
2018-07-08T05:56:12.613Z,15.60
2018-07-08T05:58:44.449Z,15.70
2018-07-08T06:01:17.118Z,15.80
2018-07-08T06:03:48.905Z,16.00
2018-07-08T06:08:52.013Z,16.10
2018-07-08T06:13:55.076Z,16.20
2018-07-08T06:18:59.053Z,16.40
2018-07-08T06:21:30.826Z,16.60
2018-07-08T06:24:02.765Z,16.60
2018-07-08T06:26:34.526Z,16.80
2018-07-08T06:29:06.713Z,16.70
2018-07-08T06:31:38.499Z,16.80
2018-07-08T06:34:10.373Z,16.90
2018-07-08T06:36:42.209Z,17.00
2018-07-08T06:39:14.118Z,16.90
2018-07-08T06:41:45.977Z,16.80
2018-07-08T06:44:17.936Z,16.90
2018-07-08T06:49:20.932Z,16.90
2018-07-08T06:51:52.916Z,16.70
2018-07-08T06:54:25.006Z,16.80
2018-07-08T06:56:57.200Z,16.60
2018-07-08T06:59:29.453Z,16.80
2018-07-08T07:02:01.446Z,17.00
2018-07-08T07:04:33.436Z,17.10
2018-07-08T07:07:05.457Z,16.80
2018-07-08T07:09:37.425Z,17.20
2018-07-08T07:12:09.866Z,17.50
2018-07-08T07:14:41.832Z,17.70
2018-07-08T07:17:13.830Z,17.70
2018-07-08T07:19:45.893Z,17.60
2018-07-08T07:22:17.813Z,17.60
2018-07-08T07:24:49.880Z,17.50
2018-07-08T07:27:22.269Z,17.60
2018-07-08T07:29:54.303Z,17.80
2018-07-08T07:32:26.485Z,17.90
2018-07-08T07:34:58.408Z,17.80
2018-07-08T07:37:30.527Z,18.00
2018-07-08T07:40:02.465Z,18.10
2018-07-08T07:42:34.433Z,18.00
2018-07-08T07:45:07.485Z,18.20
2018-07-08T07:47:39.333Z,18.30
2018-07-08T07:50:11.258Z,18.40
2018-07-08T07:55:14.981Z,18.80
2018-07-08T07:57:46.975Z,18.80
2018-07-08T08:00:19.146Z,18.80
2018-07-08T08:02:51.074Z,18.60
2018-07-08T08:07:54.254Z,18.60
2018-07-08T08:10:26.474Z,18.80
2018-07-08T08:12:58.446Z,18.70
2018-07-08T08:15:30.604Z,18.70
2018-07-08T08:18:02.546Z,18.70
2018-07-08T08:20:34.560Z,18.70
2018-07-08T08:23:06.613Z,18.80
2018-07-08T08:25:38.509Z,19.00
2018-07-08T08:28:10.375Z,19.30
2018-07-08T08:30:42.327Z,19.30
2018-07-08T08:33:14.276Z,19.40
2018-07-08T08:35:46.305Z,19.30
2018-07-08T08:38:18.279Z,19.60
2018-07-08T08:40:50.222Z,20.20
2018-07-08T08:43:22.089Z,20.20
2018-07-08T08:45:54.724Z,20.10
2018-07-08T08:48:26.634Z,20.20
2018-07-08T08:50:58.486Z,20.40
2018-07-08T08:53:30.297Z,20.20
2018-07-08T08:56:11.619Z,20.10
2018-07-08T08:58:43.482Z,20.10
2018-07-08T09:01:15.430Z,20.00
2018-07-08T09:08:50.678Z,20.00
2018-07-08T09:11:22.706Z,20.00
2018-07-08T09:13:54.594Z,19.90
2018-07-08T09:16:26.574Z,19.80
2018-07-08T09:18:58.414Z,20.10
2018-07-08T09:26:32.874Z,20.20
2018-07-08T09:29:04.846Z,20.30
2018-07-08T09:31:36.853Z,20.60
2018-07-08T09:34:08.781Z,21.20
2018-07-08T09:36:40.787Z,21.60
2018-07-08T09:41:46.850Z,21.80
2018-07-08T09:44:19.226Z,22.10
2018-07-08T09:46:51.308Z,21.60
2018-07-08T09:49:23.173Z,21.20
2018-07-08T09:51:55.172Z,20.80
2018-07-08T09:54:26.998Z,20.60
2018-07-08T09:56:59.025Z,20.50
2018-07-08T09:59:30.889Z,20.60
2018-07-08T10:02:02.811Z,20.50
2018-07-08T10:04:34.800Z,20.60
2018-07-08T10:07:06.902Z,20.60
2018-07-08T10:09:38.784Z,20.50
2018-07-08T10:14:42.242Z,20.40
2018-07-08T10:17:14.234Z,20.40
2018-07-08T10:22:17.345Z,20.40
2018-07-08T10:24:49.237Z,20.40
2018-07-08T10:30:23.236Z,20.70
2018-07-08T10:32:55.218Z,20.90
2018-07-08T10:38:33.094Z,20.70
2018-07-08T10:41:05.028Z,20.80
2018-07-08T10:46:08.988Z,21.20
2018-07-08T10:48:41.213Z,21.50
2018-07-08T10:53:44.261Z,21.30
2018-07-08T11:01:18.545Z,21.10
2018-07-08T11:03:50.433Z,21.20
2018-07-08T11:08:53.393Z,21.10
2018-07-08T11:11:25.173Z,21.20
2018-07-08T11:16:29.697Z,21.30
2018-07-08T11:19:05.009Z,21.10
2018-07-08T11:21:37.213Z,21.30
2018-07-08T11:24:09.245Z,21.50
2018-07-08T11:26:41.106Z,21.60
2018-07-08T11:29:13.066Z,21.60
2018-07-08T11:31:45.075Z,21.80
2018-07-08T11:34:17.606Z,22.00
2018-07-08T11:36:50.711Z,22.00
2018-07-08T11:41:53.939Z,21.70
2018-07-08T11:44:25.865Z,21.90
2018-07-08T11:57:02.714Z,22.70
2018-07-08T12:02:06.374Z,23.30
2018-07-08T12:04:38.571Z,23.90
2018-07-08T12:07:10.313Z,23.20
2018-07-08T12:12:13.417Z,23.20
2018-07-08T12:14:45.320Z,23.50
2018-07-08T12:19:49.548Z,23.30
2018-07-08T12:22:21.431Z,23.20
2018-07-08T12:24:53.306Z,23.60
2018-07-08T12:27:25.117Z,23.60
2018-07-08T12:29:59.842Z,23.50
2018-07-08T12:35:03.322Z,23.60
2018-07-08T12:42:37.600Z,23.50
2018-07-08T12:47:40.898Z,23.40
2018-07-08T12:55:15.714Z,24.50
2018-07-08T13:00:18.942Z,24.10
2018-07-08T13:05:22.090Z,23.50
2018-07-08T13:07:54.017Z,23.30
2018-07-08T13:12:57.206Z,22.90
2018-07-08T13:15:29.453Z,22.80
2018-07-08T13:18:01.424Z,22.60
2018-07-08T13:20:33.376Z,22.50
2018-07-08T13:25:39.016Z,22.90
2018-07-08T13:33:13.281Z,23.10
2018-07-08T13:35:45.472Z,23.20
2018-07-08T13:38:17.647Z,23.40
2018-07-08T13:43:21.013Z,25.00
2018-07-08T13:45:52.933Z,24.60
2018-07-08T13:53:27.275Z,23.90
2018-07-08T13:58:30.474Z,24.20
2018-07-08T14:03:33.667Z,22.70
2018-07-08T14:06:06.328Z,22.40
2018-07-08T14:08:38.350Z,22.00
2018-07-08T14:13:43.026Z,21.80
2018-07-08T14:16:15.025Z,21.90
2018-07-08T14:18:46.955Z,22.00
2018-07-08T14:21:18.946Z,21.60
2018-07-08T14:23:50.939Z,21.70
2018-07-08T14:26:23.276Z,21.40
2018-07-08T14:31:26.567Z,21.10
2018-07-08T14:33:58.638Z,22.20
2018-07-08T14:36:30.518Z,22.90
2018-07-08T14:39:02.462Z,23.70
2018-07-08T14:41:34.634Z,24.10
2018-07-08T14:44:07.025Z,23.20
2018-07-08T14:46:39.361Z,23.80
2018-07-08T14:49:11.216Z,24.00
2018-07-08T14:51:43.190Z,23.30
2018-07-08T14:56:49.238Z,23.70
2018-07-08T15:01:54.092Z,23.30
2018-07-08T15:04:26.594Z,22.60
2018-07-08T15:06:58.569Z,22.70
2018-07-08T15:09:30.525Z,23.30
2018-07-08T15:12:02.585Z,23.90
2018-07-08T15:14:34.632Z,24.00
2018-07-08T15:17:06.574Z,24.20
2018-07-08T15:19:38.476Z,23.60
2018-07-08T15:22:10.496Z,24.10
2018-07-08T15:24:42.313Z,24.70
2018-07-08T15:29:45.744Z,24.70
2018-07-08T15:34:49.028Z,24.90
2018-07-08T15:37:21.022Z,24.80
2018-07-08T15:44:55.599Z,24.20
2018-07-08T15:47:28.074Z,24.30
2018-07-08T15:49:59.993Z,24.70
2018-07-08T15:55:05.181Z,25.00
2018-07-08T16:02:39.639Z,25.70
2018-07-08T16:05:11.502Z,24.50
2018-07-08T16:07:43.495Z,24.70
2018-07-08T16:10:15.361Z,25.20
2018-07-08T16:12:47.800Z,25.80
2018-07-08T16:17:54.357Z,25.30
2018-07-08T16:22:58.573Z,25.90
2018-07-08T16:25:30.601Z,26.00
2018-07-08T16:28:02.531Z,25.80
2018-07-08T16:30:34.541Z,25.60
2018-07-08T16:33:06.649Z,24.80
2018-07-08T16:35:43.633Z,26.10
2018-07-08T16:40:48.092Z,25.40
2018-07-08T16:45:51.187Z,26.20
2018-07-08T16:48:23.347Z,25.90
2018-07-08T16:53:26.531Z,24.60
2018-07-08T16:55:58.367Z,24.40
2018-07-08T16:58:30.345Z,23.60
2018-07-08T17:01:02.255Z,22.90
2018-07-08T17:03:34.547Z,22.70
2018-07-08T17:06:06.643Z,22.80
2018-07-08T17:08:38.611Z,22.50
2018-07-08T17:16:13.458Z,22.50
2018-07-08T17:18:45.513Z,22.00
2018-07-08T17:21:17.425Z,21.90
2018-07-08T17:23:49.574Z,22.00
2018-07-08T17:26:21.556Z,21.80
2018-07-08T17:28:53.700Z,22.10
2018-07-08T17:33:56.867Z,21.90
2018-07-08T17:36:28.808Z,21.70
2018-07-08T17:39:00.920Z,21.90
2018-07-08T17:44:04.159Z,21.50
2018-07-08T17:46:36.470Z,21.20
2018-07-08T17:49:08.432Z,21.30
2018-07-08T17:51:40.428Z,21.00
2018-07-08T17:59:14.879Z,21.20
2018-07-08T18:01:46.960Z,21.10
2018-07-08T18:09:21.844Z,21.30
2018-07-08T18:14:26.308Z,21.10
2018-07-08T18:16:58.408Z,20.90
2018-07-08T18:22:02.688Z,20.50
2018-07-08T18:24:34.624Z,20.60
2018-07-08T18:29:38.093Z,20.70
2018-07-08T18:32:10.004Z,20.60
2018-07-08T18:39:45.651Z,20.50
2018-07-08T18:42:17.820Z,20.40
2018-07-08T18:47:21.232Z,20.10
2018-07-08T18:49:53.327Z,20.20
2018-07-08T18:54:58.124Z,19.80
2018-07-08T18:57:30.351Z,19.80
2018-07-08T19:00:02.387Z,19.80
2018-07-08T19:05:06.201Z,19.60
2018-07-08T19:07:38.188Z,19.50
2018-07-08T19:10:10.247Z,19.60
2018-07-08T19:12:42.301Z,19.90
2018-07-08T19:15:14.877Z,19.70
2018-07-08T19:20:18.333Z,19.90
2018-07-08T19:22:50.340Z,20.10
2018-07-08T19:25:23.933Z,19.70
2018-07-08T19:30:27.388Z,19.20
2018-07-08T19:32:59.479Z,19.20
2018-07-08T19:35:31.906Z,19.20
2018-07-08T19:38:04.065Z,19.50
2018-07-08T19:43:08.326Z,19.30
2018-07-08T19:45:40.400Z,19.20
2018-07-08T19:48:12.758Z,19.20
2018-07-08T19:50:45.787Z,19.10
2018-07-08T19:53:17.874Z,19.30
2018-07-08T19:55:50.197Z,19.30
2018-07-08T19:58:22.206Z,19.10
2018-07-08T20:00:54.362Z,19.10
2018-07-08T20:03:26.434Z,19.00
2018-07-08T20:05:58.645Z,19.20
2018-07-08T20:08:30.716Z,19.00
2018-07-08T20:13:34.475Z,19.10
2018-07-08T20:16:06.568Z,19.10
2018-07-08T20:21:10.090Z,19.00
2018-07-08T20:23:42.012Z,19.20
2018-07-08T20:26:14.054Z,19.10
2018-07-08T20:28:46.051Z,18.80
2018-07-08T20:33:49.537Z,18.80
2018-07-08T20:36:21.526Z,18.90
2018-07-08T20:38:53.489Z,18.70
2018-07-08T20:41:26.585Z,18.70
2018-07-08T20:43:58.624Z,18.70
2018-07-08T20:46:30.962Z,18.60
2018-07-08T20:51:34.437Z,18.60
2018-07-08T20:54:06.554Z,18.50
2018-07-08T20:59:09.895Z,18.50
2018-07-08T21:01:42.100Z,18.50
2018-07-08T21:04:14.053Z,18.30
2018-07-08T21:06:46.406Z,18.30
2018-07-08T21:11:49.735Z,18.10
2018-07-08T21:14:21.684Z,18.20
2018-07-08T21:16:53.716Z,18.40
2018-07-08T21:19:25.746Z,18.10
2018-07-08T21:21:57.879Z,17.90
2018-07-08T21:24:30.450Z,17.90
2018-07-08T21:29:34.086Z,18.00
2018-07-08T21:32:06.052Z,17.90
2018-07-08T21:37:09.348Z,17.80
2018-07-08T21:39:41.356Z,17.70
2018-07-08T21:42:13.362Z,17.80
2018-07-08T21:44:45.855Z,17.70
2018-07-08T21:54:51.532Z,17.80
2018-07-08T21:57:23.576Z,17.60
2018-07-08T22:02:26.700Z,17.60
2018-07-08T22:04:58.623Z,17.50
2018-07-08T22:07:35.803Z,17.70
2018-07-08T22:10:08.293Z,17.70
2018-07-08T22:12:40.542Z,17.80
2018-07-08T22:15:12.533Z,17.80
2018-07-08T22:17:44.461Z,17.60
2018-07-08T22:20:16.312Z,17.60
2018-07-08T22:25:19.424Z,17.30
2018-07-08T22:27:51.293Z,17.40
2018-07-08T22:30:23.166Z,17.40
2018-07-08T22:32:55.050Z,17.30
2018-07-08T22:35:26.872Z,17.20
2018-07-08T22:37:58.818Z,17.50
2018-07-08T22:43:02.152Z,17.10
2018-07-08T22:45:34.812Z,17.00
2018-07-08T22:50:37.901Z,16.90
2018-07-08T22:53:09.792Z,16.90
2018-07-08T22:58:13.067Z,16.90
2018-07-08T23:01:01.402Z,16.80
2018-07-08T23:04:04.092Z,16.80
2018-07-08T23:06:35.973Z,16.70
2018-07-08T23:09:07.954Z,16.70
2018-07-08T23:14:11.123Z,16.70
2018-07-08T23:16:43.141Z,16.70
2018-07-08T23:19:15.153Z,16.70
2018-07-08T23:21:47.276Z,16.80
2018-07-08T23:24:19.291Z,16.80
2018-07-08T23:29:22.560Z,16.80
2018-07-08T23:31:54.538Z,16.90
2018-07-08T23:34:26.434Z,16.80
2018-07-08T23:39:29.634Z,16.30
2018-07-08T23:42:01.572Z,16.30
2018-07-08T23:44:33.584Z,16.30
2018-07-08T23:49:36.791Z,16.10
2018-07-08T23:52:08.752Z,16.00
2018-07-08T23:57:11.943Z,15.80
